Time;durP1;ratioP1;P1;durP2;ratioP2;P2;SDS_P1;SDS_P2;PMS_P1;PMS_P2;Temp;Humidity;BMP_temperature;BMP_pressure;BME280_temperature;BME280_humidity;BME280_pressure;Samples;Min_cycle;Max_cycle;Signal;HPM_P1;HPM_P2
2023/03/13 00:00:15;;;;;;;8.00;4.50;;;8.10;99.90;;;;;;5032647;28;20182;-72
2023/03/13 00:02:44;;;;;;;8.23;4.60;;;8.10;99.90;;;;;;5044183;28;20586;-72
2023/03/13 00:05:10;;;;;;;12.17;5.17;;;8.10;99.90;;;;;;5037708;28;20544;-72
2023/03/13 00:07:35;;;;;;;7.50;5.23;;;8.00;99.90;;;;;;5036647;28;20515;-71
2023/03/13 00:10:01;;;;;;;11.53;6.10;;;8.00;99.90;;;;;;5030944;28;20465;-71
2023/03/13 00:12:26;;;;;;;11.83;6.50;;;8.00;99.90;;;;;;5030197;28;20178;-72
2023/03/13 00:14:52;;;;;;;11.77;6.23;;;8.00;99.90;;;;;;5031739;28;20221;-72
2023/03/13 00:17:17;;;;;;;8.33;5.00;;;8.00;99.90;;;;;;5040163;28;20240;-73
2023/03/13 00:19:43;;;;;;;11.73;5.53;;;8.00;99.90;;;;;;5031626;28;20190;-71
2023/03/13 00:22:08;;;;;;;11.37;5.43;;;8.00;99.90;;;;;;5045533;28;20228;-72
2023/03/13 00:24:34;;;;;;;6.40;4.37;;;8.00;99.90;;;;;;5039922;28;20198;-72
2023/03/13 00:27:02;;;;;;;8.87;5.30;;;8.00;99.90;;;;;;5038888;28;20564;-72
2023/03/13 00:29:29;;;;;;;9.67;5.63;;;8.00;99.90;;;;;;5030715;28;20198;-72
2023/03/13 00:31:54;;;;;;;11.50;5.77;;;8.00;99.90;;;;;;5038541;28;20439;-72
2023/03/13 00:34:20;;;;;;;12.63;5.97;;;7.90;99.90;;;;;;5035355;28;20815;-71
2023/03/13 00:36:45;;;;;;;9.17;4.90;;;7.80;99.90;;;;;;5048240;28;20256;-72
2023/03/13 00:39:11;;;;;;;8.03;5.00;;;7.80;99.90;;;;;;5040927;28;20182;-72
2023/03/13 00:41:37;;;;;;;9.13;6.10;;;7.80;99.90;;;;;;5029994;28;20179;-72
2023/03/13 00:44:03;;;;;;;16.30;5.87;;;7.80;99.90;;;;;;5039955;28;20197;-71
2023/03/13 00:46:29;;;;;;;10.30;4.43;;;7.90;99.90;;;;;;5044741;28;20537;-71
2023/03/13 00:48:56;;;;;;;14.27;4.53;;;7.90;99.90;;;;;;5037658;28;20456;-71
2023/03/13 00:51:23;;;;;;;13.07;5.57;;;7.90;99.90;;;;;;5038498;28;20452;-72
2023/03/13 00:53:48;;;;;;;7.73;4.77;;;8.00;99.90;;;;;;5029433;28;20429;-72
2023/03/13 00:56:16;;;;;;;10.47;4.97;;;8.00;99.90;;;;;;5032487;28;20455;-72
2023/03/13 00:58:44;;;;;;;10.17;4.77;;;8.10;99.90;;;;;;5041308;28;20185;-71
2023/03/13 01:01:14;;;;;;;8.40;4.57;;;8.10;99.90;;;;;;5042905;28;20447;-72
2023/03/13 01:03:41;;;;;;;11.93;5.23;;;8.00;99.90;;;;;;5037396;28;20510;-72
2023/03/13 01:06:13;;;;;;;9.17;6.00;;;8.00;99.90;;;;;;5030246;28;20460;-71
2023/03/13 01:08:39;;;;;;;9.30;5.30;;;8.00;99.90;;;;;;5029096;28;20467;-71
2023/03/13 01:11:25;;;;;;;11.57;5.13;;;7.90;99.90;;;;;;5043826;28;20801;-72
2023/03/13 01:13:56;;;;;;;19.73;6.13;;;7.80;99.90;;;;;;5039893;28;20447;-72
2023/03/13 01:16:23;;;;;;;8.03;4.87;;;7.80;99.90;;;;;;5036065;28;20441;-71
2023/03/13 01:18:54;;;;;;;10.63;5.77;;;7.80;99.90;;;;;;5029402;28;20441;-72
2023/03/13 01:21:22;;;;;;;8.37;4.70;;;7.80;99.90;;;;;;5038071;28;20435;-72
2023/03/13 01:23:49;;;;;;;7.93;5.30;;;7.70;99.90;;;;;;5038812;28;20444;-71
2023/03/13 01:26:15;;;;;;;14.40;5.37;;;7.70;99.90;;;;;;5031168;28;20846;-71
2023/03/13 01:28:40;;;;;;;7.97;5.10;;;7.70;99.90;;;;;;5036566;28;20526;-71
2023/03/13 01:31:18;;;;;;;8.93;4.37;;;7.70;99.90;;;;;;5029632;28;20186;-72
2023/03/13 01:33:44;;;;;;;9.40;5.57;;;7.70;99.90;;;;;;5036446;28;20213;-72
2023/03/13 01:36:10;;;;;;;10.13;4.67;;;7.70;99.90;;;;;;5032404;28;20449;-72
2023/03/13 01:38:37;;;;;;;8.87;3.90;;;7.70;99.90;;;;;;5034864;28;20512;-72
2023/03/13 01:41:04;;;;;;;9.07;5.20;;;7.80;99.90;;;;;;5033418;28;20448;-72
2023/03/13 01:43:32;;;;;;;8.50;4.73;;;7.80;99.90;;;;;;5033970;28;20459;-72
2023/03/13 01:46:12;;;;;;;11.57;4.63;;;7.80;99.90;;;;;;5042316;28;20984;-72
2023/03/13 01:48:49;;;;;;;8.93;4.43;;;7.80;99.90;;;;;;5030078;28;20533;-72
2023/03/13 01:51:22;;;;;;;8.93;3.80;;;7.80;99.90;;;;;;5042844;28;20428;-71
2023/03/13 01:53:55;;;;;;;11.17;3.70;;;7.80;99.90;;;;;;5029434;28;20934;-72
2023/03/13 01:56:26;;;;;;;8.23;4.40;;;7.80;99.90;;;;;;5038984;28;20435;-71
2023/03/13 01:58:54;;;;;;;8.80;4.47;;;7.80;99.90;;;;;;5036290;28;20527;-71
2023/03/13 02:01:20;;;;;;;9.63;4.07;;;7.80;99.90;;;;;;5036487;28;20445;-72
2023/03/13 02:03:48;;;;;;;6.60;4.13;;;7.80;99.90;;;;;;5031042;28;20452;-71
2023/03/13 02:06:13;;;;;;;7.90;3.73;;;7.90;99.90;;;;;;5044457;28;20209;-71
2023/03/13 02:08:51;;;;;;;7.60;3.57;;;7.90;99.90;;;;;;5046527;28;20843;-72
2023/03/13 02:11:42;;;;;;;4.90;3.87;;;8.00;99.90;;;;;;5033707;28;20577;-72
2023/03/13 02:14:08;;;;;;;8.43;4.10;;;8.10;99.90;;;;;;5030682;28;20555;-71
2023/03/13 02:16:35;;;;;;;12.43;5.27;;;8.10;99.90;;;;;;5037021;28;20552;-72
2023/03/13 02:19:29;;;;;;;9.43;4.50;;;8.20;99.90;;;;;;5037875;28;20444;-71
2023/03/13 02:22:09;;;;;;;5.70;2.93;;;8.20;99.90;;;;;;5027036;28;20452;-72
2023/03/13 02:24:57;;;;;;;5.10;3.07;;;8.20;99.90;;;;;;5026232;28;20549;-72
2023/03/13 02:27:23;;;;;;;4.43;2.60;;;8.30;99.90;;;;;;5039360;28;20447;-72
2023/03/13 02:29:49;;;;;;;7.73;2.73;;;8.40;99.90;;;;;;5036026;28;20506;-72
2023/03/13 02:32:15;;;;;;;4.80;2.20;;;8.40;99.90;;;;;;5032501;28;20178;-72
2023/03/13 02:34:43;;;;;;;7.63;2.50;;;8.50;99.90;;;;;;5035285;28;20463;-72
2023/03/13 02:37:12;;;;;;;6.97;2.87;;;8.50;99.90;;;;;;5041284;28;20192;-71
2023/03/13 02:39:44;;;;;;;3.47;1.90;;;8.60;99.90;;;;;;5036865;28;20857;-72
2023/03/13 02:42:11;;;;;;;6.57;2.47;;;8.60;99.90;;;;;;5033521;28;20480;-71
2023/03/13 02:44:39;;;;;;;6.13;2.53;;;8.70;99.90;;;;;;5033616;28;20482;-71
2023/03/13 02:47:05;;;;;;;2.33;1.60;;;8.70;99.90;;;;;;5042556;28;20509;-72
2023/03/13 02:49:30;;;;;;;7.70;1.90;;;8.80;99.90;;;;;;5040549;28;20961;-72
2023/03/13 02:52:04;;;;;;;3.43;1.70;;;8.80;99.90;;;;;;5031962;28;20193;-72
2023/03/13 02:54:34;;;;;;;5.87;3.43;;;8.80;99.90;;;;;;5035774;28;20213;-71
2023/03/13 02:57:02;;;;;;;6.70;1.80;;;8.90;99.90;;;;;;5045689;28;20569;-72
2023/03/13 02:59:28;;;;;;;5.43;1.80;;;8.90;99.90;;;;;;5035248;28;20520;-71
2023/03/13 03:01:54;;;;;;;4.87;2.40;;;9.00;99.90;;;;;;5035001;28;20498;-72
2023/03/13 03:04:21;;;;;;;2.87;1.50;;;8.90;99.90;;;;;;5035068;28;20492;-72
2023/03/13 03:06:48;;;;;;;6.37;2.00;;;8.90;99.90;;;;;;5034756;28;20197;-71
2023/03/13 03:09:14;;;;;;;6.37;2.33;;;9.00;99.90;;;;;;5040538;28;20467;-71
2023/03/13 03:11:40;;;;;;;8.10;2.63;;;9.00;99.90;;;;;;5045794;28;20531;-72
2023/03/13 03:14:06;;;;;;;4.00;1.47;;;9.00;99.90;;;;;;5035303;28;20640;-71
2023/03/13 03:16:32;;;;;;;5.13;2.33;;;9.10;99.90;;;;;;5031122;28;20481;-71
2023/03/13 03:18:57;;;;;;;3.10;1.90;;;9.00;99.90;;;;;;5043338;28;20444;-72
2023/03/13 03:21:23;;;;;;;4.83;1.93;;;9.00;99.90;;;;;;5042455;28;20216;-71
2023/03/13 03:23:49;;;;;;;7.80;2.40;;;9.00;99.90;;;;;;5039635;28;20268;-72
2023/03/13 03:26:14;;;;;;;9.00;2.10;;;8.90;99.90;;;;;;5036619;28;20251;-71
2023/03/13 03:28:40;;;;;;;4.53;1.53;;;8.90;99.90;;;;;;5035310;28;20468;-72
2023/03/13 03:31:08;;;;;;;3.97;2.20;;;8.80;99.90;;;;;;5044882;28;20213;-72
2023/03/13 03:33:34;;;;;;;5.63;2.30;;;8.80;99.90;;;;;;5036685;28;20499;-72
2023/03/13 03:36:06;;;;;;;5.93;1.87;;;8.80;99.90;;;;;;5041241;28;20460;-73
2023/03/13 03:38:32;;;;;;;4.13;1.90;;;8.80;99.90;;;;;;5034387;28;20244;-71
2023/03/13 03:40:57;;;;;;;3.60;1.33;;;8.90;99.90;;;;;;5039366;28;21136;-71
2023/03/13 03:43:23;;;;;;;5.17;1.50;;;8.90;99.90;;;;;;5046933;28;20945;-72
2023/03/13 03:45:49;;;;;;;2.13;1.10;;;9.00;99.90;;;;;;5055319;22;20342;-70
2023/03/13 03:48:14;;;;;;;2.30;1.33;;;9.00;99.90;;;;;;5031831;28;20627;-70
2023/03/13 03:50:40;;;;;;;2.77;1.40;;;9.10;99.90;;;;;;5031102;28;20182;-70
2023/03/13 03:53:06;;;;;;;4.90;1.73;;;9.20;99.90;;;;;;5028413;28;20257;-70
2023/03/13 03:55:32;;;;;;;2.70;1.57;;;9.30;99.90;;;;;;5035447;28;20626;-70
2023/03/13 03:57:58;;;;;;;7.07;1.57;;;9.40;99.90;;;;;;5042920;28;20526;-70
2023/03/13 04:00:24;;;;;;;3.83;1.10;;;9.50;99.90;;;;;;5033551;28;20519;-70
2023/03/13 04:02:49;;;;;;;2.70;1.07;;;9.60;99.90;;;;;;5029502;28;20178;-70
2023/03/13 04:05:15;;;;;;;3.27;1.20;;;9.70;99.90;;;;;;5040007;28;20206;-70
2023/03/13 04:07:40;;;;;;;3.90;1.20;;;10.00;99.90;;;;;;5039041;28;20178;-70
2023/03/13 04:10:06;;;;;;;1.17;0.80;;;10.20;99.90;;;;;;5038650;28;20301;-70
2023/03/13 04:12:32;;;;;;;2.77;1.30;;;10.40;99.90;;;;;;5043859;28;20216;-70
2023/03/13 04:14:57;;;;;;;2.57;1.20;;;10.50;99.90;;;;;;5032264;28;20484;-70
2023/03/13 04:17:23;;;;;;;2.13;1.10;;;10.60;99.90;;;;;;5040821;28;20564;-70
2023/03/13 04:19:48;;;;;;;1.40;1.03;;;10.70;99.90;;;;;;5045543;28;20665;-70
2023/03/13 04:22:14;;;;;;;1.13;1.03;;;10.80;99.90;;;;;;5040125;28;20279;-70
2023/03/13 04:24:39;;;;;;;1.40;0.90;;;10.90;99.90;;;;;;5042851;28;20201;-70
2023/03/13 04:27:05;;;;;;;1.93;0.90;;;11.00;99.90;;;;;;5032376;28;20190;-70
2023/03/13 04:29:31;;;;;;;1.23;0.80;;;11.00;99.90;;;;;;5030688;28;20198;-70
2023/03/13 04:31:57;;;;;;;1.23;1.00;;;11.00;99.90;;;;;;5040403;28;20201;-70
2023/03/13 04:34:22;;;;;;;1.00;0.90;;;11.10;99.90;;;;;;5041176;28;20425;-70
2023/03/13 04:36:48;;;;;;;1.47;1.10;;;11.10;99.90;;;;;;5043700;28;20189;-70
2023/03/13 04:39:14;;;;;;;0.90;0.90;;;11.10;99.90;;;;;;5029446;28;20198;-70
2023/03/13 04:41:39;;;;;;;2.47;1.20;;;11.10;99.90;;;;;;5039688;28;20221;-70
2023/03/13 04:44:05;;;;;;;1.50;0.97;;;11.10;99.90;;;;;;5036485;28;20670;-70
2023/03/13 04:46:30;;;;;;;1.50;1.00;;;11.10;99.90;;;;;;5041033;28;20205;-70
2023/03/13 04:48:56;;;;;;;1.23;0.93;;;11.10;99.90;;;;;;5035226;28;20209;-71
2023/03/13 04:51:21;;;;;;;2.87;1.07;;;11.10;99.90;;;;;;5024301;28;20178;-70
2023/03/13 04:53:47;;;;;;;3.43;1.73;;;11.10;99.90;;;;;;5038934;28;20268;-70
2023/03/13 04:56:22;;;;;;;1.43;0.90;;;11.00;99.90;;;;;;5039050;28;20595;-70
2023/03/13 04:58:48;;;;;;;1.40;1.00;;;11.00;99.90;;;;;;5034713;28;20205;-70
2023/03/13 05:01:13;;;;;;;1.00;0.90;;;11.10;99.90;;;;;;5032341;28;20475;-70
2023/03/13 05:03:39;;;;;;;4.80;1.23;;;11.00;99.90;;;;;;5028995;28;20265;-70
2023/03/13 05:06:04;;;;;;;2.87;1.00;;;11.00;99.90;;;;;;5030012;28;20289;-70
2023/03/13 05:08:30;;;;;;;1.33;0.93;;;11.00;99.90;;;;;;5040920;28;20636;-70
2023/03/13 05:10:56;;;;;;;1.30;1.13;;;11.00;99.90;;;;;;5035410;28;20170;-70
2023/03/13 05:13:22;;;;;;;1.03;0.83;;;11.00;99.90;;;;;;5042771;28;20535;-70
2023/03/13 05:15:47;;;;;;;1.50;1.40;;;11.00;99.90;;;;;;5028676;28;20484;-70
2023/03/13 05:18:13;;;;;;;1.60;0.80;;;11.00;99.90;;;;;;5024289;28;20271;-71
2023/03/13 05:20:38;;;;;;;0.87;0.70;;;11.10;99.90;;;;;;5030832;28;20209;-70
2023/03/13 05:23:04;;;;;;;4.70;0.90;;;11.10;99.90;;;;;;5029185;28;20336;-70
2023/03/13 05:25:29;;;;;;;0.80;0.80;;;11.10;99.90;;;;;;5031602;28;20205;-70
2023/03/13 05:27:55;;;;;;;1.10;1.00;;;11.10;99.90;;;;;;5040641;28;20185;-70
2023/03/13 05:30:20;;;;;;;1.10;1.00;;;11.10;99.90;;;;;;5036606;28;20205;-70
2023/03/13 05:32:46;;;;;;;6.07;2.00;;;11.10;99.90;;;;;;5029879;28;20667;-70
2023/03/13 05:35:11;;;;;;;1.37;1.17;;;11.20;99.90;;;;;;5031045;28;20202;-70
2023/03/13 05:37:37;;;;;;;1.10;1.00;;;11.20;99.90;;;;;;5032824;28;20189;-70
2023/03/13 05:40:03;;;;;;;2.20;0.70;;;11.20;99.90;;;;;;5025623;28;20682;-70
2023/03/13 05:42:28;;;;;;;2.40;0.90;;;11.20;99.90;;;;;;5028347;28;20198;-70
2023/03/13 05:44:54;;;;;;;1.70;0.87;;;11.30;99.90;;;;;;5027379;28;20296;-70
2023/03/13 05:47:19;;;;;;;1.13;0.77;;;11.30;99.90;;;;;;5031106;28;20265;-70
2023/03/13 05:49:45;;;;;;;1.60;0.83;;;11.30;99.90;;;;;;5025024;28;20233;-70
2023/03/13 05:52:11;;;;;;;1.47;0.80;;;11.40;99.90;;;;;;5030812;28;20685;-70
2023/03/13 05:54:36;;;;;;;0.77;0.70;;;11.40;99.90;;;;;;5033989;28;20205;-70
2023/03/13 05:57:02;;;;;;;2.43;1.80;;;11.30;99.90;;;;;;5027025;28;20178;-70
2023/03/13 05:59:27;;;;;;;1.93;1.40;;;11.20;99.90;;;;;;5028071;28;20232;-70
2023/03/13 06:01:53;;;;;;;2.50;0.97;;;11.20;99.90;;;;;;5027216;28;20685;-70
2023/03/13 06:04:18;;;;;;;1.60;0.93;;;11.30;99.90;;;;;;5031426;28;20188;-70
2023/03/13 06:06:45;;;;;;;1.47;0.90;;;11.30;99.90;;;;;;5023354;28;20186;-70
2023/03/13 06:09:11;;;;;;;2.00;0.93;;;11.30;99.90;;;;;;5026676;28;20202;-71
2023/03/13 06:11:36;;;;;;;1.27;0.80;;;11.40;99.90;;;;;;5037734;28;20433;-71
2023/03/13 06:14:02;;;;;;;1.90;0.73;;;11.40;99.90;;;;;;5030866;28;20174;-71
2023/03/13 06:16:28;;;;;;;0.93;0.67;;;11.50;99.90;;;;;;5035853;28;20205;-71
2023/03/13 06:18:53;;;;;;;2.70;0.90;;;11.60;99.90;;;;;;5040106;28;20186;-70
2023/03/13 06:21:20;;;;;;;1.57;0.90;;;11.60;99.90;;;;;;5038367;28;20566;-70
2023/03/13 06:23:45;;;;;;;3.20;0.90;;;11.70;99.90;;;;;;5034533;28;20444;-70
2023/03/13 06:26:11;;;;;;;0.83;0.60;;;11.70;99.90;;;;;;5043727;28;20238;-70
2023/03/13 06:28:36;;;;;;;2.20;1.10;;;11.70;99.90;;;;;;5035956;28;20625;-69
2023/03/13 06:31:03;;;;;;;1.57;1.00;;;11.70;99.90;;;;;;5040506;28;20520;-72
2023/03/13 06:33:29;;;;;;;0.67;0.63;;;11.80;99.90;;;;;;5041399;28;20189;-71
2023/03/13 06:35:56;;;;;;;1.70;1.20;;;11.80;99.90;;;;;;5033460;28;20459;-71
2023/03/13 06:38:23;;;;;;;1.50;1.10;;;11.80;99.90;;;;;;5044829;28;20439;-71
2023/03/13 06:40:49;;;;;;;1.00;0.90;;;11.80;99.90;;;;;;5033274;28;20433;-70
2023/03/13 06:43:14;;;;;;;1.13;0.80;;;11.80;99.90;;;;;;5027456;28;20961;-70
2023/03/13 06:45:40;;;;;;;0.80;0.70;;;11.90;99.90;;;;;;5034047;28;20210;-70
2023/03/13 06:48:05;;;;;;;0.80;0.80;;;11.90;99.90;;;;;;5043414;28;20185;-69
2023/03/13 06:50:31;;;;;;;1.70;0.70;;;11.90;99.90;;;;;;5019108;28;20191;-68
2023/03/13 06:52:56;;;;;;;0.70;0.70;;;12.00;99.90;;;;;;5019322;28;20190;-68
2023/03/13 06:55:23;;;;;;;5.13;0.87;;;12.00;99.90;;;;;;5010143;28;20206;-68
2023/03/13 06:57:50;;;;;;;4.90;0.80;;;12.00;99.90;;;;;;5015910;28;20185;-68
2023/03/13 07:00:16;;;;;;;0.93;0.83;;;12.00;99.90;;;;;;5016743;28;20428;-68
2023/03/13 07:02:41;;;;;;;1.73;1.00;;;12.00;99.90;;;;;;5014100;28;20528;-68
2023/03/13 07:05:07;;;;;;;0.97;0.80;;;12.00;99.90;;;;;;5014766;28;20544;-68
2023/03/13 07:07:33;;;;;;;1.40;0.80;;;12.00;99.90;;;;;;5015080;28;20290;-68
2023/03/13 07:09:59;;;;;;;1.37;1.00;;;12.00;99.90;;;;;;5013965;28;20895;-68
2023/03/13 07:12:25;;;;;;;0.70;0.70;;;12.00;99.90;;;;;;5014875;28;20422;-67
2023/03/13 07:14:50;;;;;;;1.37;0.77;;;12.00;99.90;;;;;;5013730;28;20226;-68
2023/03/13 07:17:15;;;;;;;1.83;0.67;;;12.00;99.90;;;;;;5014669;28;20224;-68
2023/03/13 07:19:41;;;;;;;4.87;3.00;;;12.00;99.90;;;;;;5013974;28;20728;-68
2023/03/13 07:22:07;;;;;;;6.93;0.93;;;12.00;99.90;;;;;;5014877;28;20175;-67
2023/03/13 07:24:32;;;;;;;2.47;0.90;;;12.00;99.90;;;;;;5012177;28;20202;-69
2023/03/13 07:26:58;;;;;;;0.97;0.90;;;12.00;99.90;;;;;;5010812;28;20274;-69
2023/03/13 07:29:23;;;;;;;3.33;1.20;;;12.00;99.90;;;;;;5012256;28;20207;-69
2023/03/13 07:31:49;;;;;;;1.63;0.80;;;12.10;99.90;;;;;;5000368;28;20252;-68
2023/03/13 07:34:15;;;;;;;2.77;1.10;;;12.10;99.90;;;;;;5012971;28;20254;-67
2023/03/13 07:36:40;;;;;;;1.00;0.77;;;12.10;99.90;;;;;;5013287;28;20163;-68
2023/03/13 07:39:07;;;;;;;0.97;0.87;;;12.10;99.90;;;;;;5013263;28;20190;-69
2023/03/13 07:41:32;;;;;;;1.43;1.10;;;12.20;99.90;;;;;;5013937;28;20175;-67
2023/03/13 07:43:58;;;;;;;2.83;1.13;;;12.20;99.90;;;;;;5013947;28;20483;-67
2023/03/13 07:46:23;;;;;;;1.70;1.03;;;12.20;99.90;;;;;;5013481;28;20577;-67
2023/03/13 07:48:50;;;;;;;1.43;1.00;;;12.20;99.90;;;;;;5012236;28;20740;-67
2023/03/13 07:51:21;;;;;;;1.33;1.23;;;12.30;99.90;;;;;;5013870;28;20175;-68
2023/03/13 07:53:46;;;;;;;1.07;1.00;;;12.30;99.90;;;;;;5013489;28;20433;-68
2023/03/13 07:56:15;;;;;;;1.63;1.20;;;12.30;99.90;;;;;;5013711;28;20434;-68
2023/03/13 07:58:42;;;;;;;1.80;1.00;;;12.30;99.90;;;;;;5012987;28;20515;-68
2023/03/13 08:01:19;;;;;;;0.87;0.80;;;12.40;99.90;;;;;;5004695;28;20448;-69
2023/03/13 08:03:47;;;;;;;1.10;1.00;;;12.50;99.90;;;;;;4994046;28;20791;-69
2023/03/13 08:06:15;;;;;;;1.13;1.00;;;12.80;99.90;;;;;;4993973;28;20936;-70
2023/03/13 08:08:41;;;;;;;0.80;0.80;;;12.90;99.90;;;;;;4992910;28;20458;-68
2023/03/13 08:11:13;;;;;;;2.00;1.00;;;12.90;99.90;;;;;;5011663;28;20524;-68
2023/03/13 08:13:40;;;;;;;1.57;0.90;;;12.90;99.90;;;;;;4993843;28;20242;-68
2023/03/13 08:16:08;;;;;;;0.83;0.83;;;12.90;99.90;;;;;;4992195;28;20447;-68
2023/03/13 08:18:35;;;;;;;1.80;1.43;;;12.90;99.90;;;;;;4993189;28;20522;-68
2023/03/13 08:21:06;;;;;;;2.10;1.50;;;13.00;99.90;;;;;;4993351;28;20437;-68
2023/03/13 08:23:32;;;;;;;1.10;1.00;;;13.10;99.90;;;;;;5012999;28;20426;-68
2023/03/13 08:26:06;;;;;;;3.23;1.10;;;13.20;99.90;;;;;;5013291;28;20449;-68
2023/03/13 08:28:32;;;;;;;1.33;1.23;;;13.30;99.90;;;;;;5012265;28;20493;-68
2023/03/13 08:30:57;;;;;;;1.93;1.10;;;13.40;99.90;;;;;;5013195;28;20830;-68
2023/03/13 08:33:23;;;;;;;3.90;1.40;;;13.50;99.90;;;;;;5012432;28;20237;-68
2023/03/13 08:35:49;;;;;;;3.53;1.00;;;13.50;99.90;;;;;;5012679;28;20260;-66
2023/03/13 08:38:14;;;;;;;1.33;1.23;;;13.60;99.90;;;;;;5012193;28;20186;-66
2023/03/13 08:40:40;;;;;;;2.30;1.17;;;13.80;99.90;;;;;;5012938;28;20588;-67
2023/03/13 08:43:05;;;;;;;2.13;1.40;;;13.80;99.90;;;;;;5012475;28;20229;-67
2023/03/13 08:45:31;;;;;;;2.83;1.60;;;13.80;99.90;;;;;;5011670;28;20253;-67
2023/03/13 08:47:56;;;;;;;2.53;2.27;;;13.80;99.90;;;;;;5005782;28;20188;-68
2023/03/13 08:50:22;;;;;;;2.20;1.47;;;13.80;99.90;;;;;;4992138;28;20222;-68
2023/03/13 08:52:47;;;;;;;2.67;1.30;;;13.80;99.90;;;;;;4992278;28;20222;-68
2023/03/13 08:55:13;;;;;;;2.40;1.30;;;13.80;99.90;;;;;;4993121;28;20191;-68
2023/03/13 08:57:38;;;;;;;1.63;1.47;;;13.80;99.90;;;;;;5012909;28;20261;-68
2023/03/13 09:00:05;;;;;;;1.50;0.90;;;13.90;99.90;;;;;;4996144;28;20210;-68
2023/03/13 09:02:31;;;;;;;1.43;1.33;;;13.90;99.90;;;;;;4993280;28;20186;-68
2023/03/13 09:04:56;;;;;;;2.60;1.37;;;13.90;99.90;;;;;;4993092;28;20438;-68
2023/03/13 09:07:23;;;;;;;1.60;1.50;;;13.90;99.90;;;;;;4996676;28;20533;-67
2023/03/13 09:09:48;;;;;;;2.80;1.53;;;14.00;99.90;;;;;;5002077;28;20203;-68
2023/03/13 09:12:14;;;;;;;5.00;1.40;;;14.10;99.90;;;;;;5011232;28;20437;-68
2023/03/13 09:14:39;;;;;;;1.43;1.33;;;14.10;99.90;;;;;;5012431;28;20198;-66
2023/03/13 09:17:05;;;;;;;1.47;1.37;;;14.10;99.90;;;;;;5012353;28;20202;-67
2023/03/13 09:19:30;;;;;;;1.47;1.37;;;14.20;99.90;;;;;;5009414;28;20213;-67
2023/03/13 09:21:56;;;;;;;3.27;1.30;;;14.20;99.90;;;;;;5012207;28;20517;-67
2023/03/13 09:24:21;;;;;;;2.57;1.60;;;14.30;99.90;;;;;;5012314;28;20526;-68
2023/03/13 09:26:47;;;;;;;3.07;1.43;;;14.30;99.90;;;;;;5011968;28;20171;-67
2023/03/13 09:29:12;;;;;;;2.43;2.03;;;14.50;99.90;;;;;;5011594;28;20210;-68
2023/03/13 09:31:40;;;;;;;1.17;1.07;;;14.60;99.90;;;;;;5010119;28;20265;-67
2023/03/13 09:34:05;;;;;;;2.50;1.77;;;14.60;99.90;;;;;;5011763;28;20258;-68
2023/03/13 09:36:31;;;;;;;1.57;1.47;;;14.70;99.90;;;;;;5011976;28;20920;-68
2023/03/13 09:38:58;;;;;;;1.70;1.60;;;14.80;99.90;;;;;;5011370;28;20288;-68
2023/03/13 09:41:46;;;;;;;1.73;1.60;;;14.90;99.90;;;;;;5010617;28;20222;-68
2023/03/13 09:44:38;;;;;;;2.17;1.50;;;15.00;99.90;;;;;;5010515;28;20537;-68
2023/03/13 09:47:15;;;;;;;2.03;1.93;;;15.30;99.90;;;;;;5008242;28;20442;-68
2023/03/13 09:50:03;;;;;;;2.17;2.03;;;15.90;99.90;;;;;;5011378;28;20607;-68
2023/03/13 09:52:39;;;;;;;3.13;1.40;;;17.00;99.90;;;;;;5012172;28;20517;-68
2023/03/13 09:55:21;;;;;;;1.37;1.23;;;17.40;99.90;;;;;;5011615;28;20521;-68
2023/03/13 09:57:56;;;;;;;1.33;1.23;;;17.90;99.90;;;;;;5007870;28;20424;-68
2023/03/13 10:00:45;;;;;;;1.43;1.33;;;18.10;99.90;;;;;;5015062;28;20566;-69
2023/03/13 10:03:10;;;;;;;4.13;1.70;;;17.70;99.90;;;;;;5015842;28;20842;-69
2023/03/13 10:05:42;;;;;;;4.63;1.97;;;18.50;99.90;;;;;;5015668;28;20473;-69
2023/03/13 10:08:19;;;;;;;2.37;2.00;;;19.10;99.90;;;;;;5014679;28;20182;-69
2023/03/13 10:10:50;;;;;;;2.33;1.83;;;19.20;99.90;;;;;;5008805;28;20440;-69
2023/03/13 10:13:33;;;;;;;2.30;1.87;;;20.10;99.90;;;;;;5014509;28;20505;-69
2023/03/13 10:16:08;;;;;;;2.40;2.20;;;21.20;99.90;;;;;;5015160;28;20469;-69
2023/03/13 10:18:33;;;;;;;2.00;1.70;;;21.70;99.90;;;;;;5014369;28;20433;-69
2023/03/13 10:21:09;;;;;;;3.13;2.03;;;21.10;99.90;;;;;;5015378;28;20436;-69
2023/03/13 10:23:50;;;;;;;2.80;1.87;;;20.60;99.90;;;;;;5015360;28;20174;-69
2023/03/13 10:26:21;;;;;;;2.03;1.70;;;20.80;99.90;;;;;;5015345;28;20441;-69
2023/03/13 10:28:49;;;;;;;2.00;1.80;;;20.90;99.90;;;;;;5014348;28;20451;-69
2023/03/13 10:31:32;;;;;;;2.30;1.67;;;21.20;99.90;;;;;;5014648;28;20801;-69
2023/03/13 10:34:12;;;;;;;2.60;2.10;;;21.70;99.90;;;;;;5015351;28;20417;-69
2023/03/13 10:36:49;;;;;;;2.60;2.03;;;21.70;97.50;;;;;;5015231;28;20440;-69
2023/03/13 10:39:20;;;;;;;2.40;2.20;;;21.30;98.70;;;;;;5014615;28;20413;-69
2023/03/13 10:41:47;;;;;;;1.63;1.53;;;21.10;99.60;;;;;;5014359;28;20447;-69
2023/03/13 10:44:30;;;;;;;1.70;1.60;;;20.40;99.90;;;;;;5015003;28;20795;-69
2023/03/13 10:47:01;;;;;;;2.10;1.90;;;19.90;99.90;;;;;;5015174;28;20426;-69
2023/03/13 10:49:28;;;;;;;2.37;2.23;;;20.20;99.90;;;;;;5014144;28;20499;-68
2023/03/13 10:52:00;;;;;;;2.70;1.70;;;19.50;99.90;;;;;;5014870;28;20509;-69
2023/03/13 10:54:28;;;;;;;2.10;1.90;;;19.40;99.90;;;;;;5012394;28;20442;-69
2023/03/13 10:57:14;;;;;;;5.40;2.03;;;19.20;99.90;;;;;;5012945;28;20441;-69
2023/03/13 10:59:47;;;;;;;2.10;1.90;;;19.20;99.90;;;;;;5012618;28;20844;-69
2023/03/13 11:02:34;;;;;;;2.30;1.70;;;20.00;99.90;;;;;;5014729;28;20457;-68
2023/03/13 11:05:00;;;;;;;4.60;1.90;;;20.10;99.90;;;;;;5001344;28;20461;-69
2023/03/13 11:07:35;;;;;;;2.70;2.27;;;19.80;99.90;;;;;;5013623;28;20433;-69
2023/03/13 11:10:22;;;;;;;5.07;1.97;;;19.80;99.90;;;;;;5009314;28;20828;-69
2023/03/13 11:12:51;;;;;;;3.23;2.93;;;20.30;99.90;;;;;;4995101;28;20417;-69
2023/03/13 11:15:27;;;;;;;1.57;1.47;;;20.50;99.90;;;;;;4994900;28;20438;-69
2023/03/13 11:18:10;;;;;;;3.40;2.70;;;20.20;99.90;;;;;;4997487;28;20430;-66
2023/03/13 11:20:39;;;;;;;4.97;2.80;;;20.00;99.90;;;;;;5010720;28;20444;-67
2023/03/13 11:23:28;;;;;;;3.50;2.07;;;19.80;99.90;;;;;;5014682;28;20980;-67
2023/03/13 11:26:14;;;;;;;4.50;2.03;;;19.20;99.90;;;;;;5014577;28;20449;-68
2023/03/13 11:28:52;;;;;;;2.70;1.80;;;19.30;99.90;;;;;;5013878;28;20453;-67
2023/03/13 11:31:20;;;;;;;4.40;1.87;;;19.30;99.90;;;;;;5013401;28;20434;-67
2023/03/13 11:34:04;;;;;;;4.50;2.50;;;19.60;99.90;;;;;;5014269;28;20418;-67
2023/03/13 11:36:39;;;;;;;3.20;2.90;;;20.10;99.90;;;;;;5014226;28;20445;-67
2023/03/13 11:39:33;;;;;;;2.40;1.97;;;21.60;99.70;;;;;;5013469;28;20421;-69
2023/03/13 11:42:01;;;;;;;4.07;1.77;;;23.20;95.40;;;;;;5006645;28;20446;-68
2023/03/13 11:44:49;;;;;;;5.37;3.43;;;24.00;92.50;;;;;;5013797;28;21025;-69
2023/03/13 11:47:15;;;;;;;2.50;1.20;;;24.70;90.30;;;;;;5013657;28;20453;-69
2023/03/13 11:49:52;;;;;;;2.77;1.80;;;24.20;88.10;;;;;;5013329;28;20559;-68
2023/03/13 11:52:39;;;;;;;3.03;1.87;;;22.70;91.60;;;;;;5014242;28;20546;-68
2023/03/13 11:55:10;;;;;;;2.93;1.67;;;22.20;93.70;;;;;;5013019;28;20465;-69
2023/03/13 11:58:08;;;;;;;2.60;2.00;;;24.30;90.70;;;;;;5005984;28;20417;-69
2023/03/13 12:00:43;;;;;;;3.20;1.80;;;24.50;84.60;;;;;;5011467;28;20430;-68
2023/03/13 12:03:26;;;;;;;1.60;1.50;;;24.60;85.80;;;;;;5013772;28;20425;-69
2023/03/13 12:05:55;;;;;;;3.50;2.43;;;25.00;82.40;;;;;;5013568;28;20442;-69
2023/03/13 12:08:46;;;;;;;4.80;1.30;;;24.90;80.60;;;;;;5012574;28;20421;-69
2023/03/13 12:11:25;;;;;;;5.23;1.40;;;25.50;78.10;;;;;;5013754;28;20480;-69
2023/03/13 12:14:12;;;;;;;1.63;1.50;;;25.90;77.10;;;;;;5013669;28;20426;-69
2023/03/13 12:16:45;;;;;;;1.90;1.23;;;26.10;73.90;;;;;;5013194;28;20438;-69
2023/03/13 12:19:15;;;;;;;3.77;3.43;;;26.30;71.30;;;;;;5010264;28;20452;-69
2023/03/13 12:21:52;;;;;;;2.80;1.70;;;26.80;69.60;;;;;;5013246;28;20421;-69
2023/03/13 12:24:24;;;;;;;4.20;1.60;;;27.10;68.00;;;;;;5013187;28;20838;-69
2023/03/13 12:26:56;;;;;;;2.20;1.33;;;26.70;66.20;;;;;;5007979;28;20440;-69
2023/03/13 12:29:40;;;;;;;5.90;1.50;;;26.60;67.00;;;;;;5001552;28;20829;-69
2023/03/13 12:32:13;;;;;;;1.87;1.37;;;26.40;65.80;;;;;;5009052;28;20528;-68
2023/03/13 12:35:11;;;;;;;2.60;1.60;;;25.90;66.90;;;;;;4993640;28;20434;-70
2023/03/13 12:38:15;;;;;;;2.30;1.57;;;26.30;65.90;;;;;;4993130;28;20431;-69
2023/03/13 12:40:43;;;;;;;2.67;1.40;;;25.70;65.10;;;;;;4993463;28;20474;-69
2023/03/13 12:43:23;;;;;;;2.17;1.40;;;25.90;65.90;;;;;;5002360;28;20441;-69
2023/03/13 12:45:57;;;;;;;4.13;3.83;;;25.90;65.70;;;;;;5006308;28;20461;-69
2023/03/13 12:48:51;;;;;;;2.20;1.90;;;26.70;63.50;;;;;;5012067;28;20421;-69
2023/03/13 12:51:38;;;;;;;1.77;1.53;;;27.40;62.50;;;;;;5012632;28;20428;-69
2023/03/13 12:54:41;;;;;;;1.73;1.43;;;28.40;59.90;;;;;;5012151;28;20537;-68
2023/03/13 12:57:20;;;;;;;3.53;1.70;;;29.40;56.60;;;;;;5012622;28;20793;-70
2023/03/13 13:00:04;;;;;;;1.93;1.70;;;28.80;55.80;;;;;;5011634;28;20418;-69
2023/03/13 13:02:30;;;;;;;3.80;1.30;;;27.80;56.20;;;;;;5012682;28;20505;-69